sensor_id;sensor_type;location;lat;lon;timestamp;P1;durP1;ratioP1;P2;durP2;ratioP2
20982;SDS011;10650;51.528;6.748;2022-12-07T00:01:32;25.10;;;18.38;;
20982;SDS011;10650;51.528;6.748;2022-12-07T00:04:03;24.13;;;20.17;;
20982;SDS011;10650;51.528;6.748;2022-12-07T00:06:33;20.10;;;17.90;;
20982;SDS011;10650;51.528;6.748;2022-12-07T00:09:03;21.48;;;18.05;;
20982;SDS011;10650;51.528;6.748;2022-12-07T00:11:32;23.77;;;19.73;;
20982;SDS011;10650;51.528;6.748;2022-12-07T00:14:01;20.05;;;17.80;;
20982;SDS011;10650;51.528;6.748;2022-12-07T00:16:32;25.88;;;21.83;;
20982;SDS011;10650;51.528;6.748;2022-12-07T00:19:05;22.13;;;19.83;;
20982;SDS011;10650;51.528;6.748;2022-12-07T00:21:33;26.05;;;22.98;;
20982;SDS011;10650;51.528;6.748;2022-12-07T00:24:02;25.60;;;22.45;;
20982;SDS011;10650;51.528;6.748;2022-12-07T00:26:32;21.67;;;18.85;;
20982;SDS011;10650;51.528;6.748;2022-12-07T00:29:03;25.55;;;20.52;;
20982;SDS011;10650;51.528;6.748;2022-12-07T00:31:32;22.40;;;19.25;;
20982;SDS011;10650;51.528;6.748;2022-12-07T00:34:07;22.27;;;19.40;;
20982;SDS011;10650;51.528;6.748;2022-12-07T00:36:39;23.70;;;18.77;;
20982;SDS011;10650;51.528;6.748;2022-12-07T00:39:07;22.27;;;19.88;;
20982;SDS011;10650;51.528;6.748;2022-12-07T00:41:35;23.77;;;19.50;;
20982;SDS011;10650;51.528;6.748;2022-12-07T00:44:03;22.63;;;19.35;;
20982;SDS011;10650;51.528;6.748;2022-12-07T00:46:31;22.27;;;19.70;;
20982;SDS011;10650;51.528;6.748;2022-12-07T00:48:59;22.60;;;19.73;;
20982;SDS011;10650;51.528;6.748;2022-12-07T00:51:29;24.98;;;19.92;;
20982;SDS011;10650;51.528;6.748;2022-12-07T00:53:57;24.88;;;21.15;;
20982;SDS011;10650;51.528;6.748;2022-12-07T00:56:26;24.52;;;21.15;;
20982;SDS011;10650;51.528;6.748;2022-12-07T00:58:58;26.13;;;20.85;;
20982;SDS011;10650;51.528;6.748;2022-12-07T01:01:27;29.38;;;22.63;;
20982;SDS011;10650;51.528;6.748;2022-12-07T01:03:57;24.85;;;19.48;;
20982;SDS011;10650;51.528;6.748;2022-12-07T01:06:29;24.42;;;20.52;;
20982;SDS011;10650;51.528;6.748;2022-12-07T01:08:58;25.65;;;21.40;;
20982;SDS011;10650;51.528;6.748;2022-12-07T01:11:28;25.40;;;20.48;;
20982;SDS011;10650;51.528;6.748;2022-12-07T01:13:58;30.65;;;23.15;;
20982;SDS011;10650;51.528;6.748;2022-12-07T01:16:27;31.38;;;23.48;;
20982;SDS011;10650;51.528;6.748;2022-12-07T01:18:57;28.52;;;24.15;;
20982;SDS011;10650;51.528;6.748;2022-12-07T01:21:30;28.45;;;23.58;;
20982;SDS011;10650;51.528;6.748;2022-12-07T01:24:01;24.85;;;20.65;;
20982;SDS011;10650;51.528;6.748;2022-12-07T01:26:30;26.10;;;21.30;;
20982;SDS011;10650;51.528;6.748;2022-12-07T01:28:58;24.17;;;20.13;;
20982;SDS011;10650;51.528;6.748;2022-12-07T01:31:27;28.25;;;23.80;;
20982;SDS011;10650;51.528;6.748;2022-12-07T01:33:56;24.50;;;20.42;;
20982;SDS011;10650;51.528;6.748;2022-12-07T01:36:26;22.58;;;19.95;;
20982;SDS011;10650;51.528;6.748;2022-12-07T01:38:58;22.08;;;19.48;;
20982;SDS011;10650;51.528;6.748;2022-12-07T01:41:28;25.88;;;20.80;;
20982;SDS011;10650;51.528;6.748;2022-12-07T01:44:09;27.52;;;21.02;;
20982;SDS011;10650;51.528;6.748;2022-12-07T01:46:40;25.60;;;20.52;;
20982;SDS011;10650;51.528;6.748;2022-12-07T01:49:10;22.10;;;19.63;;
20982;SDS011;10650;51.528;6.748;2022-12-07T01:51:43;27.40;;;21.83;;
20982;SDS011;10650;51.528;6.748;2022-12-07T01:54:16;22.30;;;19.70;;
20982;SDS011;10650;51.528;6.748;2022-12-07T01:56:47;26.00;;;20.42;;
20982;SDS011;10650;51.528;6.748;2022-12-07T02:01:47;21.40;;;18.48;;
20982;SDS011;10650;51.528;6.748;2022-12-07T02:04:15;30.40;;;22.75;;
20982;SDS011;10650;51.528;6.748;2022-12-07T02:06:43;25.10;;;20.17;;
20982;SDS011;10650;51.528;6.748;2022-12-07T02:09:12;27.05;;;21.10;;
20982;SDS011;10650;51.528;6.748;2022-12-07T02:11:42;28.90;;;23.55;;
20982;SDS011;10650;51.528;6.748;2022-12-07T02:14:10;31.80;;;23.42;;
20982;SDS011;10650;51.528;6.748;2022-12-07T02:16:41;22.33;;;18.98;;
20982;SDS011;10650;51.528;6.748;2022-12-07T02:19:31;28.17;;;21.83;;
20982;SDS011;10650;51.528;6.748;2022-12-07T02:22:19;28.85;;;21.50;;
20982;SDS011;10650;51.528;6.748;2022-12-07T02:25:19;29.90;;;23.27;;
20982;SDS011;10650;51.528;6.748;2022-12-07T02:27:58;24.65;;;20.73;;
20982;SDS011;10650;51.528;6.748;2022-12-07T02:30:34;25.60;;;20.73;;
20982;SDS011;10650;51.528;6.748;2022-12-07T02:33:08;30.45;;;24.13;;
20982;SDS011;10650;51.528;6.748;2022-12-07T02:35:42;31.10;;;23.77;;
20982;SDS011;10650;51.528;6.748;2022-12-07T02:38:16;27.27;;;21.85;;
20982;SDS011;10650;51.528;6.748;2022-12-07T02:40:52;24.17;;;19.02;;
20982;SDS011;10650;51.528;6.748;2022-12-07T02:43:23;34.90;;;26.10;;
20982;SDS011;10650;51.528;6.748;2022-12-07T02:45:55;30.95;;;24.55;;
20982;SDS011;10650;51.528;6.748;2022-12-07T02:48:27;29.15;;;23.13;;
20982;SDS011;10650;51.528;6.748;2022-12-07T02:50:55;34.05;;;25.75;;
20982;SDS011;10650;51.528;6.748;2022-12-07T02:53:33;29.02;;;23.38;;
20982;SDS011;10650;51.528;6.748;2022-12-07T02:56:06;27.80;;;22.35;;
20982;SDS011;10650;51.528;6.748;2022-12-07T02:58:44;35.65;;;26.00;;
20982;SDS011;10650;51.528;6.748;2022-12-07T03:01:24;27.45;;;22.38;;
20982;SDS011;10650;51.528;6.748;2022-12-07T03:04:02;27.95;;;22.63;;
20982;SDS011;10650;51.528;6.748;2022-12-07T03:06:43;37.40;;;26.92;;
20982;SDS011;10650;51.528;6.748;2022-12-07T03:09:20;30.08;;;22.83;;
20982;SDS011;10650;51.528;6.748;2022-12-07T03:11:55;35.97;;;26.48;;
20982;SDS011;10650;51.528;6.748;2022-12-07T03:14:29;29.98;;;23.80;;
20982;SDS011;10650;51.528;6.748;2022-12-07T03:17:03;28.85;;;22.65;;
20982;SDS011;10650;51.528;6.748;2022-12-07T03:19:35;27.25;;;21.95;;
20982;SDS011;10650;51.528;6.748;2022-12-07T03:22:05;31.90;;;24.55;;
20982;SDS011;10650;51.528;6.748;2022-12-07T03:24:38;30.50;;;23.70;;
20982;SDS011;10650;51.528;6.748;2022-12-07T03:27:16;27.40;;;21.65;;
20982;SDS011;10650;51.528;6.748;2022-12-07T03:29:48;31.08;;;24.42;;
20982;SDS011;10650;51.528;6.748;2022-12-07T03:32:23;25.17;;;20.52;;
20982;SDS011;10650;51.528;6.748;2022-12-07T03:34:58;27.38;;;22.75;;
20982;SDS011;10650;51.528;6.748;2022-12-07T03:37:32;27.55;;;21.13;;
20982;SDS011;10650;51.528;6.748;2022-12-07T03:40:03;30.50;;;22.00;;
20982;SDS011;10650;51.528;6.748;2022-12-07T03:42:38;29.75;;;23.02;;
20982;SDS011;10650;51.528;6.748;2022-12-07T03:45:07;32.03;;;23.45;;
20982;SDS011;10650;51.528;6.748;2022-12-07T03:47:40;36.10;;;27.67;;
20982;SDS011;10650;51.528;6.748;2022-12-07T03:50:15;34.88;;;24.38;;
20982;SDS011;10650;51.528;6.748;2022-12-07T03:52:52;26.33;;;20.88;;
20982;SDS011;10650;51.528;6.748;2022-12-07T03:55:24;30.58;;;22.35;;
20982;SDS011;10650;51.528;6.748;2022-12-07T03:57:56;30.23;;;23.17;;
20982;SDS011;10650;51.528;6.748;2022-12-07T04:00:28;28.92;;;22.38;;
20982;SDS011;10650;51.528;6.748;2022-12-07T04:02:58;25.67;;;19.73;;
20982;SDS011;10650;51.528;6.748;2022-12-07T04:05:27;26.00;;;21.02;;
20982;SDS011;10650;51.528;6.748;2022-12-07T04:07:57;29.00;;;22.38;;
20982;SDS011;10650;51.528;6.748;2022-12-07T04:10:26;28.90;;;21.13;;
20982;SDS011;10650;51.528;6.748;2022-12-07T04:12:54;32.78;;;24.20;;
20982;SDS011;10650;51.528;6.748;2022-12-07T04:15:22;25.17;;;18.70;;
20982;SDS011;10650;51.528;6.748;2022-12-07T04:17:50;33.30;;;23.20;;
20982;SDS011;10650;51.528;6.748;2022-12-07T04:20:22;26.65;;;19.00;;
20982;SDS011;10650;51.528;6.748;2022-12-07T04:22:51;35.03;;;25.65;;
20982;SDS011;10650;51.528;6.748;2022-12-07T04:25:19;35.28;;;25.50;;
20982;SDS011;10650;51.528;6.748;2022-12-07T04:27:47;29.33;;;22.20;;
20982;SDS011;10650;51.528;6.748;2022-12-07T04:30:15;25.50;;;19.52;;
20982;SDS011;10650;51.528;6.748;2022-12-07T04:32:43;30.35;;;22.02;;
20982;SDS011;10650;51.528;6.748;2022-12-07T04:35:11;26.58;;;20.27;;
20982;SDS011;10650;51.528;6.748;2022-12-07T04:37:41;33.15;;;24.35;;
20982;SDS011;10650;51.528;6.748;2022-12-07T04:40:09;25.73;;;19.90;;
20982;SDS011;10650;51.528;6.748;2022-12-07T04:42:41;28.48;;;21.58;;
20982;SDS011;10650;51.528;6.748;2022-12-07T04:45:09;32.03;;;21.77;;
20982;SDS011;10650;51.528;6.748;2022-12-07T04:47:38;27.75;;;21.80;;
20982;SDS011;10650;51.528;6.748;2022-12-07T04:50:07;35.25;;;24.40;;
20982;SDS011;10650;51.528;6.748;2022-12-07T04:52:37;33.45;;;23.80;;
20982;SDS011;10650;51.528;6.748;2022-12-07T04:55:07;24.65;;;18.73;;
20982;SDS011;10650;51.528;6.748;2022-12-07T04:57:35;28.20;;;20.35;;
20982;SDS011;10650;51.528;6.748;2022-12-07T05:00:03;31.17;;;23.52;;
20982;SDS011;10650;51.528;6.748;2022-12-07T05:02:33;29.33;;;22.40;;
20982;SDS011;10650;51.528;6.748;2022-12-07T05:05:01;28.58;;;21.23;;
20982;SDS011;10650;51.528;6.748;2022-12-07T05:07:29;26.17;;;19.40;;
20982;SDS011;10650;51.528;6.748;2022-12-07T05:10:00;25.17;;;19.52;;
20982;SDS011;10650;51.528;6.748;2022-12-07T05:12:33;22.65;;;18.65;;
20982;SDS011;10650;51.528;6.748;2022-12-07T05:15:11;24.70;;;19.02;;
20982;SDS011;10650;51.528;6.748;2022-12-07T05:17:40;32.03;;;21.80;;
20982;SDS011;10650;51.528;6.748;2022-12-07T05:20:10;29.60;;;21.48;;
20982;SDS011;10650;51.528;6.748;2022-12-07T05:22:55;25.73;;;18.45;;
20982;SDS011;10650;51.528;6.748;2022-12-07T05:25:24;24.75;;;19.20;;
20982;SDS011;10650;51.528;6.748;2022-12-07T05:27:56;24.92;;;17.23;;
20982;SDS011;10650;51.528;6.748;2022-12-07T05:30:27;22.90;;;16.98;;
20982;SDS011;10650;51.528;6.748;2022-12-07T05:32:56;26.45;;;17.70;;
20982;SDS011;10650;51.528;6.748;2022-12-07T05:35:24;22.33;;;17.30;;
20982;SDS011;10650;51.528;6.748;2022-12-07T05:38:04;24.25;;;17.23;;
20982;SDS011;10650;51.528;6.748;2022-12-07T05:40:32;26.17;;;18.70;;
20982;SDS011;10650;51.528;6.748;2022-12-07T05:43:04;21.92;;;16.35;;
20982;SDS011;10650;51.528;6.748;2022-12-07T05:45:34;25.60;;;19.73;;
20982;SDS011;10650;51.528;6.748;2022-12-07T05:48:24;27.85;;;18.00;;
20982;SDS011;10650;51.528;6.748;2022-12-07T05:50:53;27.58;;;19.08;;
20982;SDS011;10650;51.528;6.748;2022-12-07T05:53:23;29.48;;;20.20;;
20982;SDS011;10650;51.528;6.748;2022-12-07T05:55:55;28.33;;;20.92;;
20982;SDS011;10650;51.528;6.748;2022-12-07T05:58:25;31.88;;;24.00;;
20982;SDS011;10650;51.528;6.748;2022-12-07T06:01:10;27.10;;;18.40;;
20982;SDS011;10650;51.528;6.748;2022-12-07T06:04:04;22.40;;;16.42;;
20982;SDS011;10650;51.528;6.748;2022-12-07T06:06:39;24.05;;;17.20;;
20982;SDS011;10650;51.528;6.748;2022-12-07T06:09:27;22.85;;;16.60;;
20982;SDS011;10650;51.528;6.748;2022-12-07T06:12:01;26.38;;;18.17;;
20982;SDS011;10650;51.528;6.748;2022-12-07T06:14:50;22.92;;;16.00;;
20982;SDS011;10650;51.528;6.748;2022-12-07T06:17:18;24.25;;;17.23;;
20982;SDS011;10650;51.528;6.748;2022-12-07T06:19:47;24.45;;;16.10;;
20982;SDS011;10650;51.528;6.748;2022-12-07T06:22:15;21.20;;;14.57;;
20982;SDS011;10650;51.528;6.748;2022-12-07T06:24:43;25.60;;;16.05;;
20982;SDS011;10650;51.528;6.748;2022-12-07T06:27:13;20.40;;;15.45;;
20982;SDS011;10650;51.528;6.748;2022-12-07T06:29:41;25.15;;;16.70;;
20982;SDS011;10650;51.528;6.748;2022-12-07T06:32:11;22.08;;;16.17;;
20982;SDS011;10650;51.528;6.748;2022-12-07T06:34:39;22.75;;;16.20;;
20982;SDS011;10650;51.528;6.748;2022-12-07T06:37:09;21.45;;;15.70;;
20982;SDS011;10650;51.528;6.748;2022-12-07T06:54:59;20.95;;;14.98;;
20982;SDS011;10650;51.528;6.748;2022-12-07T07:22:15;24.98;;;15.90;;
20982;SDS011;10650;51.528;6.748;2022-12-07T07:24:44;21.25;;;14.38;;
20982;SDS011;10650;51.528;6.748;2022-12-07T07:27:12;19.13;;;12.50;;
20982;SDS011;10650;51.528;6.748;2022-12-07T07:29:41;24.08;;;15.90;;
20982;SDS011;10650;51.528;6.748;2022-12-07T07:32:09;25.98;;;13.18;;
20982;SDS011;10650;51.528;6.748;2022-12-07T07:34:39;20.17;;;13.95;;
20982;SDS011;10650;51.528;6.748;2022-12-07T07:37:07;19.38;;;12.98;;
20982;SDS011;10650;51.528;6.748;2022-12-07T07:39:41;19.50;;;12.20;;
20982;SDS011;10650;51.528;6.748;2022-12-07T07:42:10;17.33;;;11.30;;
20982;SDS011;10650;51.528;6.748;2022-12-07T07:44:39;15.80;;;11.77;;
20982;SDS011;10650;51.528;6.748;2022-12-07T07:47:07;19.13;;;12.30;;
20982;SDS011;10650;51.528;6.748;2022-12-07T07:49:39;19.98;;;11.77;;
20982;SDS011;10650;51.528;6.748;2022-12-07T07:52:27;19.35;;;12.40;;
20982;SDS011;10650;51.528;6.748;2022-12-07T07:55:18;22.23;;;11.35;;
20982;SDS011;10650;51.528;6.748;2022-12-07T07:57:59;17.42;;;11.02;;
20982;SDS011;10650;51.528;6.748;2022-12-07T08:00:43;15.95;;;11.30;;
20982;SDS011;10650;51.528;6.748;2022-12-07T08:06:57;20.38;;;11.65;;
20982;SDS011;10650;51.528;6.748;2022-12-07T08:09:59;17.17;;;11.40;;
20982;SDS011;10650;51.528;6.748;2022-12-07T08:12:52;20.50;;;12.25;;
20982;SDS011;10650;51.528;6.748;2022-12-07T08:15:56;23.15;;;12.25;;
20982;SDS011;10650;51.528;6.748;2022-12-07T08:18:48;18.52;;;10.93;;
20982;SDS011;10650;51.528;6.748;2022-12-07T08:21:35;18.48;;;13.52;;
20982;SDS011;10650;51.528;6.748;2022-12-07T08:24:32;17.88;;;11.20;;
20982;SDS011;10650;51.528;6.748;2022-12-07T08:29:15;18.33;;;11.60;;
20982;SDS011;10650;51.528;6.748;2022-12-07T08:30:40;14.27;;;9.88;;
20982;SDS011;10650;51.528;6.748;2022-12-07T08:33:37;16.02;;;10.30;;
20982;SDS011;10650;51.528;6.748;2022-12-07T08:36:42;17.13;;;11.00;;
20982;SDS011;10650;51.528;6.748;2022-12-07T08:39:12;22.88;;;11.32;;
20982;SDS011;10650;51.528;6.748;2022-12-07T08:42:09;14.45;;;10.57;;
20982;SDS011;10650;51.528;6.748;2022-12-07T08:48:30;15.80;;;10.38;;
20982;SDS011;10650;51.528;6.748;2022-12-07T08:51:36;17.15;;;11.07;;
20982;SDS011;10650;51.528;6.748;2022-12-07T08:58:05;13.57;;;9.80;;
20982;SDS011;10650;51.528;6.748;2022-12-07T09:00:40;16.90;;;9.82;;
20982;SDS011;10650;51.528;6.748;2022-12-07T09:03:58;14.48;;;9.50;;
20982;SDS011;10650;51.528;6.748;2022-12-07T09:07:51;16.85;;;9.43;;
20982;SDS011;10650;51.528;6.748;2022-12-07T09:11:05;12.05;;;8.50;;
20982;SDS011;10650;51.528;6.748;2022-12-07T09:14:03;16.10;;;10.50;;
20982;SDS011;10650;51.528;6.748;2022-12-07T09:16:57;20.42;;;11.63;;
20982;SDS011;10650;51.528;6.748;2022-12-07T09:23:48;14.50;;;10.38;;
20982;SDS011;10650;51.528;6.748;2022-12-07T09:27:19;15.18;;;10.30;;
20982;SDS011;10650;51.528;6.748;2022-12-07T09:32:20;16.77;;;9.73;;
20982;SDS011;10650;51.528;6.748;2022-12-07T09:34:19;17.13;;;10.13;;
20982;SDS011;10650;51.528;6.748;2022-12-07T09:37:24;12.60;;;9.85;;
20982;SDS011;10650;51.528;6.748;2022-12-07T09:40:21;18.83;;;10.60;;
20982;SDS011;10650;51.528;6.748;2022-12-07T09:43:01;15.23;;;9.93;;
20982;SDS011;10650;51.528;6.748;2022-12-07T09:46:06;19.67;;;11.40;;
20982;SDS011;10650;51.528;6.748;2022-12-07T09:49:39;17.08;;;9.98;;
20982;SDS011;10650;51.528;6.748;2022-12-07T09:52:50;16.77;;;10.10;;
20982;SDS011;10650;51.528;6.748;2022-12-07T09:55:22;15.77;;;9.70;;
20982;SDS011;10650;51.528;6.748;2022-12-07T09:57:55;16.88;;;9.88;;
20982;SDS011;10650;51.528;6.748;2022-12-07T10:00:26;14.43;;;8.77;;
20982;SDS011;10650;51.528;6.748;2022-12-07T10:02:56;14.40;;;9.38;;
20982;SDS011;10650;51.528;6.748;2022-12-07T10:05:40;13.43;;;8.88;;
20982;SDS011;10650;51.528;6.748;2022-12-07T10:08:12;17.35;;;8.82;;
20982;SDS011;10650;51.528;6.748;2022-12-07T10:10:44;17.95;;;9.20;;
20982;SDS011;10650;51.528;6.748;2022-12-07T10:13:18;11.65;;;8.27;;
20982;SDS011;10650;51.528;6.748;2022-12-07T10:15:53;12.38;;;7.90;;
20982;SDS011;10650;51.528;6.748;2022-12-07T10:18:33;13.88;;;8.40;;
20982;SDS011;10650;51.528;6.748;2022-12-07T10:21:08;14.40;;;8.55;;
20982;SDS011;10650;51.528;6.748;2022-12-07T10:24:02;14.10;;;8.60;;
20982;SDS011;10650;51.528;6.748;2022-12-07T10:26:32;19.73;;;8.50;;
20982;SDS011;10650;51.528;6.748;2022-12-07T10:29:16;16.50;;;7.25;;
20982;SDS011;10650;51.528;6.748;2022-12-07T10:31:50;12.07;;;6.43;;
20982;SDS011;10650;51.528;6.748;2022-12-07T10:34:30;14.15;;;7.05;;
20982;SDS011;10650;51.528;6.748;2022-12-07T10:37:11;10.90;;;6.57;;
20982;SDS011;10650;51.528;6.748;2022-12-07T10:39:49;10.32;;;6.40;;
20982;SDS011;10650;51.528;6.748;2022-12-07T10:42:20;11.75;;;6.00;;
20982;SDS011;10650;51.528;6.748;2022-12-07T10:44:50;16.33;;;6.20;;
20982;SDS011;10650;51.528;6.748;2022-12-07T10:50:29;14.27;;;5.80;;
20982;SDS011;10650;51.528;6.748;2022-12-07T10:53:21;11.90;;;5.07;;
20982;SDS011;10650;51.528;6.748;2022-12-07T11:51:12;9.68;;;4.05;;
20982;SDS011;10650;51.528;6.748;2022-12-07T11:54:25;8.63;;;3.67;;
20982;SDS011;10650;51.528;6.748;2022-12-07T11:57:26;9.80;;;4.60;;
20982;SDS011;10650;51.528;6.748;2022-12-07T12:00:03;8.13;;;4.05;;
20982;SDS011;10650;51.528;6.748;2022-12-07T12:02:35;12.85;;;4.68;;
20982;SDS011;10650;51.528;6.748;2022-12-07T12:05:13;8.85;;;4.20;;
20982;SDS011;10650;51.528;6.748;2022-12-07T12:07:45;8.88;;;5.07;;
20982;SDS011;10650;51.528;6.748;2022-12-07T12:10:40;9.55;;;4.70;;
20982;SDS011;10650;51.528;6.748;2022-12-07T12:13:22;6.78;;;4.40;;
20982;SDS011;10650;51.528;6.748;2022-12-07T12:16:41;9.00;;;4.68;;
20982;SDS011;10650;51.528;6.748;2022-12-07T12:19:25;9.05;;;4.97;;
20982;SDS011;10650;51.528;6.748;2022-12-07T12:22:04;5.80;;;4.55;;
20982;SDS011;10650;51.528;6.748;2022-12-07T12:24:52;9.75;;;4.50;;
20982;SDS011;10650;51.528;6.748;2022-12-07T12:27:44;10.30;;;4.50;;
20982;SDS011;10650;51.528;6.748;2022-12-07T12:33:06;9.15;;;3.90;;
20982;SDS011;10650;51.528;6.748;2022-12-07T12:38:47;9.48;;;4.68;;
20982;SDS011;10650;51.528;6.748;2022-12-07T12:44:43;10.40;;;4.88;;
20982;SDS011;10650;51.528;6.748;2022-12-07T12:47:39;9.32;;;4.88;;
20982;SDS011;10650;51.528;6.748;2022-12-07T12:50:22;13.65;;;5.38;;
20982;SDS011;10650;51.528;6.748;2022-12-07T12:52:53;11.05;;;4.70;;
20982;SDS011;10650;51.528;6.748;2022-12-07T12:58:29;6.97;;;3.65;;
20982;SDS011;10650;51.528;6.748;2022-12-07T13:04:30;11.95;;;4.35;;
20982;SDS011;10650;51.528;6.748;2022-12-07T13:07:13;7.57;;;4.32;;
20982;SDS011;10650;51.528;6.748;2022-12-07T13:10:41;9.10;;;4.10;;
20982;SDS011;10650;51.528;6.748;2022-12-07T13:13:30;7.80;;;4.78;;
20982;SDS011;10650;51.528;6.748;2022-12-07T13:22:41;18.05;;;8.88;;
20982;SDS011;10650;51.528;6.748;2022-12-07T13:25:18;9.55;;;4.70;;
20982;SDS011;10650;51.528;6.748;2022-12-07T13:27:55;11.40;;;4.70;;
20982;SDS011;10650;51.528;6.748;2022-12-07T13:30:30;9.32;;;5.65;;
20982;SDS011;10650;51.528;6.748;2022-12-07T13:33:11;9.13;;;4.95;;
20982;SDS011;10650;51.528;6.748;2022-12-07T13:35:43;6.55;;;3.90;;
20982;SDS011;10650;51.528;6.748;2022-12-07T13:38:20;7.18;;;4.28;;
20982;SDS011;10650;51.528;6.748;2022-12-07T13:40:59;6.80;;;4.10;;
20982;SDS011;10650;51.528;6.748;2022-12-07T13:43:41;10.38;;;4.75;;
20982;SDS011;10650;51.528;6.748;2022-12-07T13:46:11;9.05;;;4.20;;
20982;SDS011;10650;51.528;6.748;2022-12-07T13:48:45;9.18;;;3.95;;
20982;SDS011;10650;51.528;6.748;2022-12-07T13:51:17;11.23;;;4.00;;
20982;SDS011;10650;51.528;6.748;2022-12-07T13:53:47;12.18;;;4.65;;
20982;SDS011;10650;51.528;6.748;2022-12-07T13:56:17;6.68;;;3.70;;
20982;SDS011;10650;51.528;6.748;2022-12-07T13:58:49;5.82;;;3.72;;
20982;SDS011;10650;51.528;6.748;2022-12-07T14:01:18;9.35;;;3.85;;
20982;SDS011;10650;51.528;6.748;2022-12-07T14:03:46;8.93;;;3.35;;
20982;SDS011;10650;51.528;6.748;2022-12-07T14:06:16;6.22;;;2.88;;
20982;SDS011;10650;51.528;6.748;2022-12-07T14:11:27;7.72;;;3.17;;
20982;SDS011;10650;51.528;6.748;2022-12-07T14:13:58;6.90;;;3.00;;
20982;SDS011;10650;51.528;6.748;2022-12-07T14:16:31;9.77;;;3.42;;
20982;SDS011;10650;51.528;6.748;2022-12-07T14:19:02;8.68;;;2.85;;
20982;SDS011;10650;51.528;6.748;2022-12-07T14:21:32;7.47;;;3.20;;
20982;SDS011;10650;51.528;6.748;2022-12-07T14:24:08;7.70;;;2.97;;
20982;SDS011;10650;51.528;6.748;2022-12-07T14:26:38;7.30;;;3.33;;
20982;SDS011;10650;51.528;6.748;2022-12-07T14:29:21;9.93;;;3.08;;
20982;SDS011;10650;51.528;6.748;2022-12-07T14:32:13;6.85;;;2.97;;
20982;SDS011;10650;51.528;6.748;2022-12-07T14:37:27;7.15;;;2.95;;
20982;SDS011;10650;51.528;6.748;2022-12-07T14:39:56;9.27;;;3.47;;
20982;SDS011;10650;51.528;6.748;2022-12-07T14:42:27;8.18;;;2.85;;
20982;SDS011;10650;51.528;6.748;2022-12-07T14:45:00;14.05;;;3.72;;
20982;SDS011;10650;51.528;6.748;2022-12-07T14:47:29;7.15;;;3.40;;
20982;SDS011;10650;51.528;6.748;2022-12-07T14:50:18;9.43;;;3.75;;
20982;SDS011;10650;51.528;6.748;2022-12-07T14:52:51;7.22;;;3.20;;
20982;SDS011;10650;51.528;6.748;2022-12-07T14:55:42;9.13;;;3.70;;
20982;SDS011;10650;51.528;6.748;2022-12-07T14:58:12;9.25;;;3.80;;
20982;SDS011;10650;51.528;6.748;2022-12-07T15:00:43;9.27;;;3.63;;
20982;SDS011;10650;51.528;6.748;2022-12-07T15:03:12;12.27;;;3.97;;
20982;SDS011;10650;51.528;6.748;2022-12-07T15:05:40;8.77;;;3.47;;
20982;SDS011;10650;51.528;6.748;2022-12-07T15:08:09;13.27;;;3.58;;
20982;SDS011;10650;51.528;6.748;2022-12-07T15:10:42;12.57;;;3.58;;
20982;SDS011;10650;51.528;6.748;2022-12-07T15:13:12;11.95;;;4.57;;
20982;SDS011;10650;51.528;6.748;2022-12-07T15:16:13;12.55;;;4.70;;
20982;SDS011;10650;51.528;6.748;2022-12-07T15:18:47;10.10;;;3.80;;
20982;SDS011;10650;51.528;6.748;2022-12-07T15:21:38;14.30;;;4.10;;
20982;SDS011;10650;51.528;6.748;2022-12-07T15:24:09;7.88;;;3.72;;
20982;SDS011;10650;51.528;6.748;2022-12-07T15:26:38;9.35;;;4.05;;
20982;SDS011;10650;51.528;6.748;2022-12-07T15:29:08;9.57;;;5.57;;
20982;SDS011;10650;51.528;6.748;2022-12-07T15:31:39;13.88;;;4.88;;
20982;SDS011;10650;51.528;6.748;2022-12-07T15:34:24;10.60;;;4.40;;
20982;SDS011;10650;51.528;6.748;2022-12-07T15:37:03;11.10;;;5.53;;
20982;SDS011;10650;51.528;6.748;2022-12-07T15:39:31;13.43;;;5.70;;
20982;SDS011;10650;51.528;6.748;2022-12-07T15:42:00;13.45;;;6.65;;
20982;SDS011;10650;51.528;6.748;2022-12-07T15:44:28;12.85;;;5.38;;
20982;SDS011;10650;51.528;6.748;2022-12-07T15:47:15;14.32;;;5.38;;
20982;SDS011;10650;51.528;6.748;2022-12-07T15:49:44;14.27;;;5.10;;
20982;SDS011;10650;51.528;6.748;2022-12-07T15:52:12;9.13;;;4.10;;
20982;SDS011;10650;51.528;6.748;2022-12-07T15:54:40;11.05;;;4.85;;
20982;SDS011;10650;51.528;6.748;2022-12-07T15:57:08;12.32;;;4.82;;
20982;SDS011;10650;51.528;6.748;2022-12-07T15:59:37;12.45;;;4.93;;
20982;SDS011;10650;51.528;6.748;2022-12-07T16:02:05;9.30;;;4.88;;
20982;SDS011;10650;51.528;6.748;2022-12-07T16:04:38;10.02;;;5.20;;
20982;SDS011;10650;51.528;6.748;2022-12-07T16:07:06;11.52;;;4.70;;
20982;SDS011;10650;51.528;6.748;2022-12-07T16:09:34;10.35;;;4.47;;
20982;SDS011;10650;51.528;6.748;2022-12-07T16:12:02;10.07;;;4.90;;
20982;SDS011;10650;51.528;6.748;2022-12-07T16:14:30;6.63;;;3.80;;
20982;SDS011;10650;51.528;6.748;2022-12-07T16:17:01;9.18;;;4.30;;
20982;SDS011;10650;51.528;6.748;2022-12-07T16:19:30;8.23;;;3.80;;
20982;SDS011;10650;51.528;6.748;2022-12-07T16:22:03;7.70;;;3.63;;
20982;SDS011;10650;51.528;6.748;2022-12-07T16:24:31;9.18;;;4.95;;
20982;SDS011;10650;51.528;6.748;2022-12-07T16:27:03;13.38;;;5.95;;
20982;SDS011;10650;51.528;6.748;2022-12-07T16:29:31;10.13;;;5.85;;
20982;SDS011;10650;51.528;6.748;2022-12-07T16:31:59;17.10;;;7.18;;
20982;SDS011;10650;51.528;6.748;2022-12-07T16:34:27;7.45;;;4.40;;
20982;SDS011;10650;51.528;6.748;2022-12-07T16:36:55;9.32;;;3.85;;
20982;SDS011;10650;51.528;6.748;2022-12-07T16:39:31;6.82;;;3.80;;
20982;SDS011;10650;51.528;6.748;2022-12-07T16:42:00;9.23;;;4.22;;
20982;SDS011;10650;51.528;6.748;2022-12-07T16:44:29;6.80;;;3.88;;
20982;SDS011;10650;51.528;6.748;2022-12-07T16:46:58;8.52;;;4.07;;
20982;SDS011;10650;51.528;6.748;2022-12-07T16:49:27;9.60;;;4.25;;
20982;SDS011;10650;51.528;6.748;2022-12-07T16:51:55;8.77;;;4.38;;
20982;SDS011;10650;51.528;6.748;2022-12-07T16:54:45;10.70;;;4.90;;
20982;SDS011;10650;51.528;6.748;2022-12-07T16:57:14;9.75;;;6.20;;
20982;SDS011;10650;51.528;6.748;2022-12-07T16:59:48;19.05;;;9.50;;
20982;SDS011;10650;51.528;6.748;2022-12-07T17:02:17;20.73;;;10.07;;
20982;SDS011;10650;51.528;6.748;2022-12-07T17:04:46;15.10;;;7.68;;
20982;SDS011;10650;51.528;6.748;2022-12-07T17:07:14;20.77;;;10.15;;
20982;SDS011;10650;51.528;6.748;2022-12-07T17:09:42;12.48;;;8.20;;
20982;SDS011;10650;51.528;6.748;2022-12-07T17:12:13;13.38;;;6.80;;
20982;SDS011;10650;51.528;6.748;2022-12-07T17:14:41;6.72;;;4.47;;
20982;SDS011;10650;51.528;6.748;2022-12-07T17:17:30;8.50;;;4.70;;
20982;SDS011;10650;51.528;6.748;2022-12-07T17:19:58;7.90;;;4.68;;
20982;SDS011;10650;51.528;6.748;2022-12-07T17:22:30;12.55;;;6.63;;
20982;SDS011;10650;51.528;6.748;2022-12-07T17:24:58;9.73;;;6.22;;
20982;SDS011;10650;51.528;6.748;2022-12-07T17:27:29;13.70;;;5.80;;
20982;SDS011;10650;51.528;6.748;2022-12-07T17:29:57;6.00;;;3.17;;
20982;SDS011;10650;51.528;6.748;2022-12-07T17:32:25;6.78;;;3.25;;
20982;SDS011;10650;51.528;6.748;2022-12-07T17:34:53;5.40;;;3.28;;
20982;SDS011;10650;51.528;6.748;2022-12-07T17:37:22;6.18;;;3.42;;
20982;SDS011;10650;51.528;6.748;2022-12-07T17:39:49;5.93;;;3.72;;
20982;SDS011;10650;51.528;6.748;2022-12-07T17:42:26;7.95;;;4.25;;
20982;SDS011;10650;51.528;6.748;2022-12-07T17:45:07;6.88;;;4.15;;
20982;SDS011;10650;51.528;6.748;2022-12-07T17:47:39;12.63;;;6.93;;